Time;durP1;ratioP1;P1;durP2;ratioP2;P2;SDS_P1;SDS_P2;PMS_P1;PMS_P2;Temp;Humidity;BMP_temperature;BMP_pressure;BME280_temperature;BME280_humidity;BME280_pressure;Samples;Min_cycle;Max_cycle;Signal;HPM_P1;HPM_P2
2022/09/17 00:01:47;;;;;;;11.38;6.30;;;6.40;99.90;;;;;;4988151;28;20035;-85
2022/09/17 00:04:13;;;;;;;12.48;6.60;;;6.40;99.90;;;;;;4972400;28;20054;-85
2022/09/17 00:06:39;;;;;;;10.20;6.30;;;6.40;99.90;;;;;;4972205;28;20831;-84
2022/09/17 00:09:06;;;;;;;14.43;6.40;;;6.50;99.90;;;;;;4988394;28;20026;-84
2022/09/17 00:11:35;;;;;;;12.57;6.07;;;6.50;99.90;;;;;;4972203;28;20038;-85
2022/09/17 00:14:03;;;;;;;15.55;6.85;;;6.50;99.90;;;;;;4987949;28;20039;-85
2022/09/17 00:16:39;;;;;;;14.40;7.03;;;6.50;99.90;;;;;;4972272;28;20038;-84
2022/09/17 00:19:11;;;;;;;15.07;6.85;;;6.50;99.90;;;;;;4971438;28;20418;-85
2022/09/17 00:21:37;;;;;;;;;;;6.40;99.90;;;;;;4988461;28;20669;-85
2022/09/17 00:24:28;;;;;;;9.73;6.70;;;6.40;99.90;;;;;;4971808;28;19906;-85
2022/09/17 00:26:54;;;;;;;11.48;6.20;;;6.40;99.90;;;;;;4971869;28;20031;-85
2022/09/17 00:29:19;;;;;;;13.75;5.82;;;6.40;99.90;;;;;;4988055;28;20054;-85
2022/09/17 00:31:45;;;;;;;17.83;6.30;;;6.30;99.90;;;;;;4987948;28;20031;-85
2022/09/17 00:34:11;;;;;;;15.07;6.25;;;6.30;99.90;;;;;;4971569;28;20035;-85
2022/09/17 00:36:38;;;;;;;17.98;7.15;;;6.30;99.90;;;;;;4971652;28;20126;-85
2022/09/17 00:39:41;;;;;;;12.85;6.50;;;6.20;99.90;;;;;;4971390;28;20070;-85
2022/09/17 00:42:10;;;;;;;14.00;7.03;;;6.30;99.90;;;;;;4987779;28;20479;-85
2022/09/17 00:44:42;;;;;;;13.07;6.22;;;6.30;99.90;;;;;;4971474;28;20038;-84
2022/09/17 00:47:28;;;;;;;;;;;6.30;99.90;;;;;;4988423;28;20034;-85
2022/09/17 00:50:05;;;;;;;18.02;6.38;;;6.30;99.90;;;;;;4971913;28;19910;-84
2022/09/17 00:52:39;;;;;;;11.00;6.43;;;6.40;99.90;;;;;;4989915;28;20031;-84
2022/09/17 00:55:23;;;;;;;17.55;6.68;;;6.40;99.90;;;;;;4991461;28;20121;-85
2022/09/17 00:57:53;;;;;;;18.35;5.88;;;6.40;99.90;;;;;;4991548;28;20111;-85
2022/09/17 01:00:19;;;;;;;12.63;6.65;;;6.40;99.90;;;;;;4975264;28;20041;-85
2022/09/17 01:02:45;;;;;;;13.88;6.88;;;6.40;99.90;;;;;;4975384;28;20054;-85
2022/09/17 01:05:12;;;;;;;15.73;6.10;;;6.40;99.90;;;;;;4991475;28;20030;-85
2022/09/17 01:07:56;;;;;;;12.40;5.68;;;6.40;99.90;;;;;;4991856;28;20031;-85
2022/09/17 01:10:47;;;;;;;22.45;6.05;;;6.50;99.90;;;;;;4975406;28;20026;-85
2022/09/17 01:13:31;;;;;;;13.32;5.75;;;6.40;99.90;;;;;;4991546;28;20031;-85
2022/09/17 01:16:23;;;;;;;14.02;5.70;;;6.40;99.90;;;;;;4991507;28;20038;-85
2022/09/17 01:19:11;;;;;;;18.13;5.60;;;6.40;99.90;;;;;;4991341;28;20568;-85
2022/09/17 01:21:56;;;;;;;11.55;5.53;;;6.40;99.90;;;;;;4991513;28;20065;-85
2022/09/17 01:24:43;;;;;;;11.27;5.10;;;6.40;99.90;;;;;;4991078;28;20035;-85
2022/09/17 01:27:46;;;;;;;17.33;6.35;;;6.40;99.90;;;;;;4990958;28;20035;-84
2022/09/17 01:30:46;;;;;;;14.40;5.75;;;6.30;99.90;;;;;;4991189;28;20034;-86
2022/09/17 01:33:20;;;;;;;14.95;6.13;;;6.30;99.90;;;;;;4991028;28;20093;-84
2022/09/17 01:36:00;;;;;;;17.10;6.07;;;6.30;99.90;;;;;;4991033;28;20030;-85
2022/09/17 01:38:54;;;;;;;13.38;5.53;;;6.30;99.90;;;;;;4990997;28;20121;-85
2022/09/17 01:41:41;;;;;;;12.70;5.57;;;6.20;99.90;;;;;;4991030;28;20061;-84
2022/09/17 01:44:17;;;;;;;12.60;6.05;;;6.20;99.90;;;;;;4990951;28;20034;-85
2022/09/17 01:46:49;;;;;;;18.65;5.35;;;6.20;99.90;;;;;;4991111;28;20035;-85
2022/09/17 01:49:15;;;;;;;14.15;6.35;;;6.30;99.90;;;;;;4975057;28;20042;-85
2022/09/17 01:51:45;;;;;;;13.48;6.07;;;6.30;99.90;;;;;;4974670;28;20031;-85
2022/09/17 01:54:36;;;;;;;19.10;5.90;;;6.30;99.90;;;;;;4990908;28;20073;-85
2022/09/17 01:57:12;;;;;;;16.52;5.93;;;6.40;99.90;;;;;;4990616;28;20122;-85
2022/09/17 02:00:07;;;;;;;11.50;6.35;;;6.50;99.90;;;;;;4974360;28;20034;-84
2022/09/17 02:02:46;;;;;;;23.98;5.95;;;6.60;99.90;;;;;;4973942;28;20043;-85
2022/09/17 02:05:17;;;;;;;18.13;5.75;;;6.60;99.90;;;;;;4973869;28;20400;-85
2022/09/17 02:08:05;;;;;;;13.25;5.78;;;6.60;99.90;;;;;;4974155;28;20031;-85
2022/09/17 02:10:36;;;;;;;18.48;6.40;;;6.70;99.90;;;;;;4990205;28;20054;-84
2022/09/17 02:13:15;;;;;;;11.57;5.90;;;6.70;99.90;;;;;;4975364;28;20027;-84
2022/09/17 02:15:48;;;;;;;18.75;6.40;;;6.60;99.90;;;;;;4990442;28;20058;-84
2022/09/17 02:18:22;;;;;;;10.50;5.93;;;6.60;99.90;;;;;;4975482;28;20031;-85
2022/09/17 02:20:53;;;;;;;13.18;5.13;;;6.50;99.90;;;;;;4973983;28;20062;-85
2022/09/17 02:23:28;;;;;;;12.63;5.70;;;6.50;99.90;;;;;;4990072;28;20038;-85
2022/09/17 02:26:03;;;;;;;17.40;6.50;;;6.50;99.90;;;;;;4974159;28;20031;-85
2022/09/17 02:28:50;;;;;;;13.80;5.03;;;6.50;99.90;;;;;;4974057;28;20610;-85
2022/09/17 02:31:15;;;;;;;20.13;5.75;;;6.40;99.90;;;;;;4973890;28;20581;-85
2022/09/17 02:34:00;;;;;;;14.23;5.13;;;6.40;99.90;;;;;;4973541;28;20118;-85
2022/09/17 02:36:27;;;;;;;14.13;4.80;;;6.40;99.90;;;;;;4989369;28;20133;-84
2022/09/17 02:39:01;;;;;;;16.30;5.78;;;6.40;99.90;;;;;;4973558;28;20038;-85
2022/09/17 02:41:56;;;;;;;20.60;5.30;;;6.50;99.90;;;;;;4989344;28;20141;-84
2022/09/17 02:44:37;;;;;;;18.45;5.10;;;6.50;99.90;;;;;;4989679;28;20030;-85
2022/09/17 02:47:25;;;;;;;17.05;5.43;;;6.50;99.90;;;;;;4989584;28;20130;-84
2022/09/17 02:49:53;;;;;;;14.13;5.38;;;6.50;99.90;;;;;;4989564;28;20094;-84
2022/09/17 02:52:56;;;;;;;23.95;5.78;;;6.60;99.90;;;;;;4989446;28;20157;-85
2022/09/17 02:55:34;;;;;;;19.17;5.47;;;6.60;99.90;;;;;;4988572;28;20039;-85
2022/09/17 02:58:20;;;;;;;17.92;5.10;;;6.60;99.90;;;;;;4989950;28;20517;-85
2022/09/17 03:00:56;;;;;;;20.00;5.57;;;6.60;99.90;;;;;;4989805;28;20035;-85
2022/09/17 03:03:45;;;;;;;14.80;5.70;;;6.50;99.90;;;;;;4989172;28;20437;-85
2022/09/17 03:06:12;;;;;;;12.95;4.82;;;6.50;99.90;;;;;;4969934;28;20051;-85
2022/09/17 03:08:41;;;;;;;17.60;5.93;;;6.60;99.90;;;;;;4972987;28;20088;-85
2022/09/17 03:11:08;;;;;;;11.20;5.22;;;6.60;99.90;;;;;;4988520;28;20042;-85
2022/09/17 03:13:35;;;;;;;19.83;5.50;;;6.60;99.90;;;;;;4988303;28;20403;-86
2022/09/17 03:16:05;;;;;;;9.77;4.53;;;6.70;99.90;;;;;;4972435;28;20062;-85
2022/09/17 03:18:31;;;;;;;21.20;5.85;;;6.60;99.90;;;;;;4972873;28;20054;-85
2022/09/17 03:20:57;;;;;;;9.23;4.60;;;6.70;99.90;;;;;;4989110;28;20150;-85
2022/09/17 03:23:22;;;;;;;17.55;5.22;;;6.70;99.90;;;;;;4973102;28;20082;-85
2022/09/17 03:25:51;;;;;;;10.25;4.90;;;6.70;99.90;;;;;;4989131;28;20023;-86
2022/09/17 03:28:16;;;;;;;17.60;5.75;;;6.70;99.90;;;;;;4989132;28;20026;-85
2022/09/17 03:30:43;;;;;;;12.85;5.20;;;6.70;99.90;;;;;;4972900;28;20035;-85
2022/09/17 03:33:09;;;;;;;15.45;5.05;;;6.70;99.90;;;;;;4972472;28;20034;-85
2022/09/17 03:35:35;;;;;;;15.25;4.93;;;6.70;99.90;;;;;;4988779;28;20038;-85
2022/09/17 03:38:00;;;;;;;18.33;5.80;;;6.70;99.90;;;;;;4971945;28;20038;-85
2022/09/17 03:40:26;;;;;;;12.35;4.88;;;6.70;99.90;;;;;;4987962;28;20058;-86
2022/09/17 03:42:52;;;;;;;18.73;5.53;;;6.70;99.90;;;;;;4987975;28;20030;-84
2022/09/17 03:45:17;;;;;;;15.25;5.25;;;6.70;99.90;;;;;;4988155;28;20688;-85
2022/09/17 03:47:43;;;;;;;18.52;5.13;;;6.70;99.90;;;;;;4971722;28;20053;-85
2022/09/17 03:50:09;;;;;;;19.20;6.22;;;6.70;99.90;;;;;;4988839;28;20090;-85
2022/09/17 03:52:35;;;;;;;13.43;5.55;;;6.70;99.90;;;;;;4972536;28;20127;-85
2022/09/17 03:55:01;;;;;;;15.52;6.10;;;6.80;99.90;;;;;;4972274;28;20042;-85
2022/09/17 03:57:27;;;;;;;12.38;6.15;;;6.80;99.90;;;;;;4972441;28;20576;-84
2022/09/17 03:59:52;;;;;;;22.80;7.05;;;6.90;99.90;;;;;;4972536;28;20117;-85
2022/09/17 04:02:18;;;;;;;19.00;6.30;;;6.80;99.90;;;;;;4972547;28;20069;-84
2022/09/17 04:04:44;;;;;;;16.80;6.47;;;6.80;99.90;;;;;;4988325;28;20030;-85
2022/09/17 04:07:09;;;;;;;18.48;7.60;;;6.80;99.90;;;;;;4988376;28;20033;-85
2022/09/17 04:09:44;;;;;;;21.27;7.35;;;6.80;99.90;;;;;;4988700;28;20376;-85
2022/09/17 04:15:57;;;;;;;21.45;6.82;;;6.80;99.90;;;;;;4973701;28;20037;-84
2022/09/17 04:18:22;;;;;;;15.52;6.75;;;6.80;99.90;;;;;;4971884;28;20410;-84
2022/09/17 04:20:48;;;;;;;20.17;6.60;;;6.80;99.90;;;;;;4971564;28;20023;-85
2022/09/17 04:23:14;;;;;;;28.15;6.88;;;6.80;99.90;;;;;;4988228;28;20109;-85
2022/09/17 04:25:39;;;;;;;16.60;7.20;;;6.80;99.90;;;;;;4989500;28;20117;-85
2022/09/17 04:28:05;;;;;;;18.23;7.38;;;6.80;99.90;;;;;;4976206;28;20035;-85
2022/09/17 04:30:32;;;;;;;26.30;7.97;;;6.70;99.90;;;;;;4975972;28;20030;-85
2022/09/17 04:32:57;;;;;;;16.83;8.77;;;6.70;99.90;;;;;;4975590;28;20075;-84
2022/09/17 04:35:23;;;;;;;31.48;9.63;;;6.70;99.90;;;;;;4991631;28;20031;-85
2022/09/17 04:37:56;;;;;;;22.48;9.20;;;6.60;99.90;;;;;;4991415;28;20642;-85
2022/09/17 04:40:23;;;;;;;26.88;10.25;;;6.60;99.90;;;;;;4991701;28;20030;-85
2022/09/17 04:43:01;;;;;;;18.15;11.15;;;6.50;99.90;;;;;;4975581;28;20745;-84
2022/09/17 04:45:28;;;;;;;27.65;12.15;;;6.50;99.90;;;;;;4975837;28;20026;-84
2022/09/17 04:47:54;;;;;;;28.52;11.77;;;6.50;99.90;;;;;;4992162;28;20065;-85
2022/09/17 04:50:21;;;;;;;31.08;12.38;;;6.50;99.90;;;;;;4975626;28;20046;-84
2022/09/17 04:52:47;;;;;;;26.55;12.80;;;6.50;99.90;;;;;;4991685;28;20042;-84
2022/09/17 04:55:14;;;;;;;31.73;13.55;;;6.50;99.90;;;;;;4991368;28;20031;-84
2022/09/17 04:57:52;;;;;;;36.38;15.07;;;6.50;99.90;;;;;;4975262;28;20065;-84
2022/09/17 05:00:19;;;;;;;32.10;15.50;;;6.50;99.90;;;;;;4975309;28;20461;-84
2022/09/17 05:02:48;;;;;;;36.00;15.38;;;6.50;99.90;;;;;;4976633;28;20019;-84
2022/09/17 05:05:15;;;;;;;30.58;15.32;;;6.50;99.90;;;;;;4991667;28;20072;-84
2022/09/17 05:07:41;;;;;;;34.20;17.00;;;6.50;99.90;;;;;;4991457;28;20039;-84
2022/09/17 05:10:08;;;;;;;34.47;15.90;;;6.50;99.90;;;;;;4975430;28;20031;-84
2022/09/17 05:13:02;;;;;;;42.00;16.33;;;6.50;99.90;;;;;;4990915;28;20065;-84
2022/09/17 05:15:27;;;;;;;39.53;17.35;;;6.50;99.90;;;;;;4974383;28;20062;-83
2022/09/17 05:17:53;;;;;;;35.78;17.70;;;6.50;99.90;;;;;;4974992;28;20058;-84
2022/09/17 05:20:19;;;;;;;39.13;17.65;;;6.50;99.90;;;;;;4991116;28;20090;-84
2022/09/17 05:22:50;;;;;;;33.17;17.42;;;6.50;99.90;;;;;;4974944;28;20403;-84
2022/09/17 05:25:18;;;;;;;32.40;17.23;;;6.50;99.90;;;;;;4974868;28;20129;-84
2022/09/17 05:27:44;;;;;;;36.05;18.30;;;6.50;99.90;;;;;;4990400;28;20081;-84
2022/09/17 05:30:11;;;;;;;41.22;18.80;;;6.50;99.90;;;;;;4990977;28;20051;-84
2022/09/17 05:32:39;;;;;;;36.83;17.92;;;6.50;99.90;;;;;;4974748;28;20034;-84
2022/09/17 05:35:06;;;;;;;44.75;18.90;;;6.50;99.90;;;;;;4974534;28;20151;-83
2022/09/17 05:37:32;;;;;;;44.08;21.38;;;6.60;99.90;;;;;;4989864;28;20118;-84
2022/09/17 05:39:58;;;;;;;39.65;21.13;;;6.60;99.90;;;;;;4990776;28;20548;-84
2022/09/17 05:42:23;;;;;;;37.83;19.40;;;6.60;99.90;;;;;;4974549;28;20082;-84
2022/09/17 05:44:49;;;;;;;41.72;18.65;;;6.50;99.90;;;;;;4990535;28;20704;-83
2022/09/17 05:47:14;;;;;;;40.88;19.42;;;6.60;99.90;;;;;;4974605;28;20568;-84
2022/09/17 05:49:40;;;;;;;36.35;19.83;;;6.60;99.90;;;;;;4990435;28;20374;-83
2022/09/17 05:52:06;;;;;;;39.08;18.90;;;6.50;99.90;;;;;;4990500;28;20042;-84
2022/09/17 05:54:32;;;;;;;39.38;18.33;;;6.60;99.90;;;;;;4990538;28;20070;-84
2022/09/17 05:56:57;;;;;;;36.13;16.67;;;6.60;99.90;;;;;;4974330;28;20041;-83
2022/09/17 05:59:23;;;;;;;35.03;16.80;;;6.60;99.90;;;;;;4975279;28;20031;-84
2022/09/17 06:01:49;;;;;;;39.80;19.25;;;6.60;99.90;;;;;;4973722;28;20074;-83
2022/09/17 06:04:16;;;;;;;36.50;17.35;;;6.60;99.90;;;;;;4988974;28;20793;-84
2022/09/17 06:06:42;;;;;;;68.95;20.65;;;6.60;99.90;;;;;;4973966;28;20093;-83
2022/09/17 06:09:09;;;;;;;35.90;15.75;;;6.60;99.90;;;;;;4974175;28;20030;-82
2022/09/17 06:11:35;;;;;;;35.67;15.35;;;6.60;99.90;;;;;;4990328;28;20031;-82
2022/09/17 06:14:01;;;;;;;27.88;14.85;;;6.60;99.90;;;;;;4974016;28;20114;-83
2022/09/17 06:16:27;;;;;;;33.20;16.70;;;6.60;99.90;;;;;;4975293;28;20667;-83
2022/09/17 06:18:53;;;;;;;77.30;18.38;;;6.60;99.90;;;;;;4989838;28;20109;-83
2022/09/17 06:21:23;;;;;;;330.58;29.67;;;6.60;99.90;;;;;;4989865;28;20122;-83
2022/09/17 06:23:49;;;;;;;31.55;17.25;;;6.60;99.90;;;;;;4973739;28;20514;-83
2022/09/17 06:26:16;;;;;;;35.70;17.77;;;6.60;99.90;;;;;;4990480;28;20098;-83
2022/09/17 06:28:42;;;;;;;46.03;17.85;;;6.70;99.90;;;;;;4990076;28;20061;-83
2022/09/17 06:31:09;;;;;;;31.58;15.98;;;6.70;99.90;;;;;;4989900;28;20044;-83
2022/09/17 06:33:35;;;;;;;31.95;13.88;;;6.70;99.90;;;;;;4989440;28;20781;-83
2022/09/17 06:36:07;;;;;;;36.05;14.27;;;6.60;99.90;;;;;;4973795;28;20045;-83
2022/09/17 06:38:35;;;;;;;29.45;14.57;;;6.70;99.90;;;;;;4972612;28;20038;-83
2022/09/17 06:41:00;;;;;;;34.72;14.70;;;6.80;99.90;;;;;;4972701;28;20031;-83
2022/09/17 06:43:26;;;;;;;33.65;15.75;;;6.90;99.90;;;;;;4989124;28;20474;-84
2022/09/17 06:45:54;;;;;;;35.35;15.82;;;6.80;99.90;;;;;;4989360;28;20027;-84
2022/09/17 06:48:21;;;;;;;33.95;14.90;;;6.90;99.90;;;;;;4973415;28;20429;-84
2022/09/17 06:50:47;;;;;;;34.38;17.33;;;6.80;99.90;;;;;;4973371;28;20050;-84
2022/09/17 06:53:13;;;;;;;34.65;15.73;;;6.90;99.90;;;;;;4973231;28;20035;-84
2022/09/17 06:55:39;;;;;;;29.77;16.77;;;6.90;99.90;;;;;;4973184;28;20042;-84
2022/09/17 06:58:05;;;;;;;35.15;17.10;;;7.00;99.90;;;;;;4973031;28;20430;-84
2022/09/17 07:00:30;;;;;;;36.65;17.35;;;7.20;99.90;;;;;;4989275;28;20035;-85
2022/09/17 07:02:57;;;;;;;37.60;17.02;;;7.30;99.90;;;;;;4989134;28;20031;-85
2022/09/17 07:05:24;;;;;;;43.42;17.60;;;7.30;99.90;;;;;;4988657;28;20057;-84
2022/09/17 07:07:51;;;;;;;33.55;16.55;;;7.20;99.90;;;;;;4972749;28;20147;-84
2022/09/17 07:10:17;;;;;;;39.28;16.20;;;7.20;99.90;;;;;;4972518;28;20376;-84
2022/09/17 07:12:42;;;;;;;35.08;16.13;;;7.20;99.90;;;;;;4972809;28;20031;-85
2022/09/17 07:15:14;;;;;;;51.78;16.88;;;7.30;99.90;;;;;;4972338;28;20035;-84
2022/09/17 07:17:43;;;;;;;33.83;15.65;;;7.30;99.90;;;;;;4989484;28;20031;-84
2022/09/17 07:20:10;;;;;;;32.30;15.02;;;7.30;99.90;;;;;;4974802;28;20027;-84
2022/09/17 07:22:36;;;;;;;28.42;15.00;;;7.30;99.90;;;;;;4989086;28;20049;-84
2022/09/17 07:25:02;;;;;;;31.50;14.10;;;7.30;99.90;;;;;;4988884;28;20390;-84
2022/09/17 07:27:29;;;;;;;32.97;15.30;;;7.40;99.90;;;;;;4973857;28;20041;-84
2022/09/17 07:29:55;;;;;;;26.88;13.38;;;7.30;99.90;;;;;;4988918;28;20034;-84
2022/09/17 07:32:21;;;;;;;34.90;13.90;;;7.30;99.90;;;;;;4972838;28;20110;-84
2022/09/17 07:34:48;;;;;;;34.33;13.43;;;7.20;99.90;;;;;;4973760;28;20031;-84
2022/09/17 07:37:14;;;;;;;35.75;15.98;;;7.30;99.90;;;;;;4988415;28;20027;-84
2022/09/17 07:39:40;;;;;;;33.03;14.73;;;7.40;99.90;;;;;;4970733;28;20071;-84
2022/09/17 07:42:07;;;;;;;45.08;13.32;;;7.40;99.90;;;;;;4971608;28;20550;-84
2022/09/17 07:44:32;;;;;;;32.17;14.15;;;7.50;99.90;;;;;;4971727;28;20070;-84
2022/09/17 07:46:58;;;;;;;30.92;13.40;;;7.50;99.90;;;;;;4988511;28;20046;-83
2022/09/17 07:49:24;;;;;;;25.42;13.77;;;7.50;99.90;;;;;;4972405;28;20041;-84
2022/09/17 07:51:50;;;;;;;33.47;14.27;;;7.60;99.90;;;;;;4988089;28;20057;-84
2022/09/17 07:54:16;;;;;;;42.55;14.50;;;7.70;99.90;;;;;;4988325;28;20471;-84
2022/09/17 07:56:41;;;;;;;70.68;17.48;;;7.80;99.90;;;;;;4973429;28;20491;-84
2022/09/17 07:59:08;;;;;;;26.52;12.45;;;7.80;99.90;;;;;;4988542;28;20782;-84
2022/09/17 08:01:35;;;;;;;35.55;13.43;;;7.90;99.90;;;;;;4987938;28;20121;-84
2022/09/17 08:04:01;;;;;;;31.58;11.43;;;8.00;99.90;;;;;;4971703;28;20042;-84
2022/09/17 08:06:28;;;;;;;35.63;10.85;;;8.30;99.90;;;;;;4972453;28;20061;-84
2022/09/17 08:08:55;;;;;;;24.83;10.35;;;8.40;99.90;;;;;;4988759;28;20029;-85
2022/09/17 08:11:23;;;;;;;23.13;10.30;;;8.30;99.90;;;;;;4972647;28;20038;-84
2022/09/17 08:13:50;;;;;;;25.45;9.18;;;8.40;99.90;;;;;;4972092;28;20039;-84
2022/09/17 08:16:25;;;;;;;53.40;12.43;;;8.50;99.90;;;;;;4988499;28;20039;-84
2022/09/17 08:18:56;;;;;;;30.92;8.18;;;8.60;99.90;;;;;;4988248;28;20545;-85
2022/09/17 08:21:22;;;;;;;16.40;7.83;;;8.80;99.90;;;;;;4971778;28;20129;-85
2022/09/17 08:23:48;;;;;;;17.33;7.53;;;8.70;99.90;;;;;;4987901;28;20399;-84
2022/09/17 08:30:01;;;;;;;43.50;9.77;;;8.50;99.90;;;;;;4973814;28;20038;-84
2022/09/17 08:32:28;;;;;;;49.40;10.60;;;8.30;99.90;;;;;;4988436;28;20034;-84
2022/09/17 08:34:54;;;;;;;38.28;10.07;;;8.30;99.90;;;;;;4972049;28;20026;-85
2022/09/17 08:37:20;;;;;;;63.15;14.88;;;8.30;99.90;;;;;;4988136;28;20128;-85
2022/09/17 08:39:45;;;;;;;27.88;9.98;;;8.30;99.90;;;;;;4972185;28;20050;-84
2022/09/17 08:42:26;;;;;;;21.00;8.75;;;8.40;99.90;;;;;;4987382;28;20034;-85
2022/09/17 08:45:20;;;;;;;17.63;8.90;;;8.60;99.90;;;;;;4971696;28;20406;-85
2022/09/17 08:47:47;;;;;;;21.13;7.85;;;9.00;99.90;;;;;;4970786;28;20146;-85
2022/09/17 08:50:24;;;;;;;28.15;8.38;;;9.10;99.90;;;;;;4988325;28;20043;-85
2022/09/17 08:53:16;;;;;;;11.23;6.97;;;9.20;99.90;;;;;;4988393;28;20491;-85
2022/09/17 08:56:00;;;;;;;22.85;7.70;;;9.30;99.90;;;;;;4988038;28;20034;-83
2022/09/17 08:58:54;;;;;;;21.13;7.28;;;9.30;99.90;;;;;;4989464;28;20143;-87
2022/09/17 09:01:38;;;;;;;26.27;7.40;;;9.30;99.90;;;;;;4980304;28;20133;-88
2022/09/17 09:04:18;;;;;;;24.25;6.43;;;9.50;99.90;;;;;;4989404;28;20542;-89
2022/09/17 09:06:59;;;;;;;16.48;5.78;;;9.50;99.90;;;;;;4973452;28;20059;-88
2022/09/17 09:09:31;;;;;;;16.67;6.37;;;9.50;99.90;;;;;;4973310;28;20078;-89
2022/09/17 09:12:35;;;;;;;14.15;6.55;;;9.50;99.90;;;;;;4972898;28;20389;-88
2022/09/17 09:15:06;;;;;;;17.90;5.85;;;9.40;99.90;;;;;;4992569;28;20037;-88
2022/09/17 09:17:43;;;;;;;23.00;8.50;;;9.70;99.90;;;;;;4992625;28;20035;-88
2022/09/17 09:20:31;;;;;;;20.60;5.80;;;9.80;99.90;;;;;;4992456;28;20109;-88
2022/09/17 09:23:00;;;;;;;17.42;5.60;;;9.90;99.90;;;;;;4992359;28;20675;-88
2022/09/17 09:25:34;;;;;;;21.23;5.35;;;9.90;99.90;;;;;;4991966;28;20748;-88
2022/09/17 09:28:36;;;;;;;23.55;5.80;;;10.00;99.90;;;;;;4991791;28;20061;-89
2022/09/17 09:31:26;;;;;;;11.02;4.68;;;9.90;99.90;;;;;;4975483;28;20089;-88
2022/09/17 09:33:52;;;;;;;17.15;5.28;;;9.70;99.90;;;;;;4992353;28;20035;-88
2022/09/17 09:36:20;;;;;;;15.02;5.75;;;9.30;99.90;;;;;;4992515;28;20043;-88
2022/09/17 09:39:00;;;;;;;20.67;6.45;;;9.10;99.90;;;;;;4991789;28;20049;-86
2022/09/17 09:45:30;;;;;;;16.33;6.15;;;8.90;99.90;;;;;;4976644;28;20069;-86
2022/09/17 09:48:19;;;;;;;20.65;6.07;;;8.90;99.90;;;;;;4975166;28;20081;-86
2022/09/17 09:50:58;;;;;;;16.40;5.03;;;8.90;99.90;;;;;;4991616;28;20027;-87
2022/09/17 09:53:50;;;;;;;18.73;5.80;;;9.80;99.90;;;;;;4976792;28;20037;-87
2022/09/17 09:56:30;;;;;;;20.52;4.38;;;10.70;99.90;;;;;;4991818;28;20099;-87
2022/09/17 09:58:56;;;;;;;11.38;4.05;;;11.50;99.90;;;;;;4991907;28;20034;-88
2022/09/17 10:01:27;;;;;;;10.88;3.40;;;12.20;99.90;;;;;;4976851;28;20027;-88
2022/09/17 10:03:56;;;;;;;11.25;4.15;;;13.00;99.90;;;;;;4975763;28;20027;-90
2022/09/17 10:06:23;;;;;;;30.52;3.60;;;12.90;99.90;;;;;;4991926;28;20116;-88
2022/09/17 10:08:54;;;;;;;8.68;2.95;;;13.20;99.90;;;;;;4975322;28;20027;-88
2022/09/17 10:11:26;;;;;;;13.50;3.03;;;13.20;99.90;;;;;;4976586;28;20085;-88
2022/09/17 10:13:51;;;;;;;16.13;2.63;;;12.90;99.90;;;;;;4975033;28;20038;-88
2022/09/17 10:16:26;;;;;;;10.55;3.17;;;13.60;99.90;;;;;;4992035;28;20070;-88
2022/09/17 10:19:03;;;;;;;18.27;3.30;;;13.90;99.90;;;;;;4975446;28;20169;-88
2022/09/17 10:21:32;;;;;;;8.50;2.83;;;13.70;99.90;;;;;;4991107;28;20133;-88
2022/09/17 10:24:00;;;;;;;10.45;2.50;;;13.70;99.90;;;;;;4990781;28;20027;-87
2022/09/17 10:26:30;;;;;;;13.57;2.30;;;14.00;99.90;;;;;;4976480;28;20026;-88
2022/09/17 10:29:13;;;;;;;9.57;2.70;;;13.50;99.90;;;;;;4975161;28;20031;-87
2022/09/17 10:31:53;;;;;;;9.48;2.03;;;13.80;99.90;;;;;;4990834;28;20095;-88
2022/09/17 10:34:30;;;;;;;7.35;2.53;;;14.10;99.90;;;;;;4991299;28;20662;-87
2022/09/17 10:36:57;;;;;;;8.30;2.38;;;14.10;99.90;;;;;;4991301;28;20034;-88
2022/09/17 10:39:25;;;;;;;15.85;3.15;;;14.00;99.90;;;;;;4991046;28;20041;-88
2022/09/17 10:42:15;;;;;;;7.60;2.15;;;13.30;99.90;;;;;;4975810;28;20027;-87
2022/09/17 10:44:57;;;;;;;12.70;2.22;;;13.10;99.90;;;;;;4990979;28;20038;-88
2022/09/17 10:47:36;;;;;;;10.82;2.42;;;12.50;99.90;;;;;;4990797;28;20038;-88
2022/09/17 10:50:34;;;;;;;10.98;2.47;;;11.90;99.90;;;;;;4990993;28;20042;-86
2022/09/17 10:53:05;;;;;;;10.50;4.05;;;11.40;99.90;;;;;;4990798;28;20027;-87
2022/09/17 10:55:45;;;;;;;15.68;2.58;;;10.80;99.90;;;;;;4976152;28;20041;-86
2022/09/17 10:58:29;;;;;;;9.55;2.42;;;10.40;99.90;;;;;;4974434;28;20089;-87
2022/09/17 11:01:09;;;;;;;11.15;1.98;;;10.70;99.90;;;;;;4990570;28;20122;-87
2022/09/17 11:03:53;;;;;;;6.53;1.88;;;11.60;99.90;;;;;;4974240;28;20102;-88
2022/09/17 11:06:33;;;;;;;7.05;2.05;;;12.60;99.90;;;;;;4990502;28;20037;-88
2022/09/17 11:09:13;;;;;;;6.18;1.50;;;12.90;99.90;;;;;;4990054;28;20051;-88
2022/09/17 11:11:56;;;;;;;6.05;1.55;;;13.20;99.90;;;;;;4990155;28;20391;-87
2022/09/17 11:14:57;;;;;;;5.25;1.45;;;13.80;99.90;;;;;;4973699;28;20072;-88
2022/09/17 11:17:49;;;;;;;9.57;1.70;;;13.50;99.90;;;;;;4971175;28;20078;-87
2022/09/17 11:20:21;;;;;;;8.13;2.30;;;13.40;99.90;;;;;;4990326;28;20278;-87
2022/09/17 11:23:03;;;;;;;11.18;2.35;;;13.20;99.90;;;;;;4989953;28;20047;-87
2022/09/17 11:26:11;;;;;;;6.60;1.85;;;12.40;99.90;;;;;;4990072;28;20050;-89
2022/09/17 11:28:48;;;;;;;7.43;2.55;;;11.60;99.90;;;;;;4973516;28;20058;-85
2022/09/17 11:31:50;;;;;;;4.03;1.25;;;10.80;99.90;;;;;;4989256;28;20045;-85
2022/09/17 11:34:57;;;;;;;5.82;1.75;;;9.70;99.90;;;;;;4989020;28;20038;-85
2022/09/17 11:37:30;;;;;;;13.20;5.13;;;8.90;99.90;;;;;;4990037;28;20035;-86
2022/09/17 11:40:32;;;;;;;5.18;1.88;;;8.80;99.90;;;;;;4989853;28;20133;-87
2022/09/17 11:43:06;;;;;;;2.92;1.17;;;9.10;99.90;;;;;;4989872;28;20031;-87
2022/09/17 11:45:38;;;;;;;8.43;2.22;;;9.30;99.90;;;;;;4973666;28;20121;-87
2022/09/17 11:48:19;;;;;;;9.00;3.25;;;9.50;99.90;;;;;;4989819;28;20027;-87
2022/09/17 11:51:00;;;;;;;8.57;4.13;;;9.80;99.90;;;;;;4989782;28;20033;-87
2022/09/17 11:53:28;;;;;;;11.68;4.97;;;10.10;99.90;;;;;;4989662;28;20118;-87
2022/09/17 11:56:02;;;;;;;6.13;2.83;;;10.50;99.90;;;;;;4989688;28;20035;-87
2022/09/17 11:58:38;;;;;;;12.07;4.72;;;10.70;99.90;;;;;;4973376;28;20058;-89
2022/09/17 12:01:11;;;;;;;6.70;3.55;;;10.90;99.90;;;;;;4989323;28;20541;-88
2022/09/17 12:03:58;;;;;;;6.13;1.92;;;11.30;99.90;;;;;;4973432;28;20134;-87
2022/09/17 12:06:46;;;;;;;7.13;2.30;;;11.40;99.90;;;;;;4990107;28;20078;-89
2022/09/17 12:09:24;;;;;;;5.53;2.88;;;11.40;99.90;;;;;;4990069;28;20054;-88
2022/09/17 12:12:11;;;;;;;6.88;3.55;;;11.50;99.90;;;;;;4973852;28;20050;-87
2022/09/17 12:15:04;;;;;;;8.65;1.80;;;11.60;99.90;;;;;;4989479;28;20039;-88
2022/09/17 12:17:42;;;;;;;6.95;1.67;;;11.70;99.90;;;;;;4989432;28;20039;-88
2022/09/17 12:20:26;;;;;;;11.15;2.83;;;11.70;99.90;;;;;;4973678;28;20041;-88
2022/09/17 12:22:54;;;;;;;11.15;3.40;;;11.60;99.90;;;;;;4974441;28;20029;-90
2022/09/17 12:25:21;;;;;;;11.57;2.25;;;11.60;99.90;;;;;;4989384;28;20156;-88
2022/09/17 12:28:07;;;;;;;6.47;2.40;;;11.60;99.90;;;;;;4972965;28;20035;-89
2022/09/17 12:30:39;;;;;;;11.75;3.28;;;11.60;99.90;;;;;;4989268;28;20031;-87
2022/09/17 12:33:18;;;;;;;13.18;4.82;;;11.60;99.90;;;;;;4973032;28;20372;-87
2022/09/17 12:36:10;;;;;;;14.38;5.53;;;11.40;99.90;;;;;;4973044;28;20035;-88
2022/09/17 12:38:54;;;;;;;;;;;11.70;99.90;;;;;;4973232;28;20030;-87
2022/09/17 12:41:30;;;;;;;4.15;1.50;;;11.90;99.90;;;;;;4972439;28;20000;-87
2022/09/17 12:44:34;;;;;;;4.25;2.08;;;11.90;99.90;;;;;;4973003;28;20074;-88
2022/09/17 12:47:18;;;;;;;10.70;2.80;;;11.90;99.90;;;;;;4990588;28;20126;-87
2022/09/17 12:50:08;;;;;;;12.32;1.73;;;12.00;99.90;;;;;;4992291;28;20030;-86
2022/09/17 12:56:39;;;;;;;7.15;1.70;;;12.40;99.90;;;;;;4978114;28;20810;-88
2022/09/17 12:59:19;;;;;;;4.93;1.98;;;12.50;99.90;;;;;;4992584;28;20031;-88
2022/09/17 13:02:07;;;;;;;5.78;1.95;;;12.30;99.90;;;;;;4976813;28;20030;-88
2022/09/17 13:04:51;;;;;;;8.15;2.60;;;12.10;99.90;;;;;;4992635;28;20113;-88
2022/09/17 13:07:32;;;;;;;7.28;2.38;;;12.10;99.90;;;;;;4992588;28;20038;-88
2022/09/17 13:10:17;;;;;;;6.07;1.95;;;12.10;99.90;;;;;;4992290;28;20539;-88
2022/09/17 13:12:56;;;;;;;5.50;1.80;;;12.00;99.90;;;;;;4992339;28;20129;-87
2022/09/17 13:15:36;;;;;;;7.28;1.88;;;12.10;99.90;;;;;;4976231;28;20037;-87
2022/09/17 13:18:37;;;;;;;7.07;2.13;;;12.00;99.90;;;;;;4976015;28;20777;-88
2022/09/17 13:21:13;;;;;;;7.70;1.90;;;12.20;99.90;;;;;;4992245;28;20030;-87
2022/09/17 13:23:45;;;;;;;10.35;2.50;;;12.50;99.90;;;;;;4975922;28;20074;-87
2022/09/17 13:26:15;;;;;;;7.13;1.73;;;12.50;99.90;;;;;;4976425;28;20035;-88
2022/09/17 13:28:46;;;;;;;15.52;2.38;;;12.50;99.90;;;;;;4992440;28;20479;-88
2022/09/17 13:31:18;;;;;;;9.85;2.10;;;12.60;99.90;;;;;;4992477;28;20487;-87
2022/09/17 13:33:57;;;;;;;;;;;12.90;99.90;;;;;;4992440;28;20506;-87